In Rescue
 
Open Full Screen Window  High Contrast Mode
Wind Gusting 00 knots
04
April 19, 2021 9:08 PM EDT
Weather Information
Wind Direction
  200 °
Wind Speed
  04 kt (5 mph)
Wind Gust
  00 kt (0 mph)
Altimeter
29.80 in
Visibility
10 SM
Temperature
08° C
46° F
Dewpoint
06° C
43° F
Humidity
87%
Sky Condition
Clear
VFR

METAR KEFK 200108Z AUTO 20004KT 10SM CLR 08/06 A2980 RMK AO2 T00810057

FAA Disclaimer: The data displayed is for advisory purposes only and is not to be used for flight planning or operations.